Time;durP1;ratioP1;P1;durP2;ratioP2;P2;SDS_P1;SDS_P2;PMS_P1;PMS_P2;Temp;Humidity;BMP_temperature;BMP_pressure;BME280_temperature;BME280_humidity;BME280_pressure;Samples;Min_cycle;Max_cycle;Signal;HPM_P1;HPM_P2
2022/05/11 00:01:22;;;;;;;12.23;8.13;;;;;;;;;;4996993;28;20073;-82
2022/05/11 00:03:48;;;;;;;13.52;8.73;;;;;;;;;;4999052;28;20260;-82
2022/05/11 00:06:14;;;;;;;15.95;8.80;;;;;;;;;;5000126;28;20568;-81
2022/05/11 00:08:40;;;;;;;14.02;8.52;;;;;;;;;;5010014;28;20572;-82
2022/05/11 00:11:06;;;;;;;13.95;8.38;;;;;;;;;;5000821;28;20095;-82
2022/05/11 00:13:33;;;;;;;17.10;8.80;;;;;;;;;;5003033;28;20400;-81
2022/05/11 00:15:59;;;;;;;17.55;8.57;;;;;;;;;;5005243;28;20056;-82
2022/05/11 00:18:25;;;;;;;11.55;8.10;;;;;;;;;;5010131;28;20046;-81
2022/05/11 00:20:51;;;;;;;14.13;8.05;;;;;;;;;;5006836;28;20046;-82
2022/05/11 00:23:17;;;;;;;14.75;8.07;;;;;;;;;;5007799;28;20556;-81
2022/05/11 00:25:44;;;;;;;11.00;7.75;;;;;;;;;;5013906;28;20080;-82
2022/05/11 00:28:11;;;;;;;15.25;7.95;;;;;;;;;;5001062;28;20129;-82
2022/05/11 00:30:37;;;;;;;14.38;7.90;;;;;;;;;;5013423;28;20045;-81
2022/05/11 00:33:03;;;;;;;11.73;7.55;;;;;;;;;;4998242;28;20485;-81
2022/05/11 00:35:33;;;;;;;12.30;8.10;;;;;;;;;;5004075;28;20042;-82
2022/05/11 00:37:59;;;;;;;14.15;7.18;;;;;;;;;;4997670;28;20069;-82
2022/05/11 00:40:25;;;;;;;12.90;7.82;;;;;;;;;;5008215;28;20049;-81
2022/05/11 00:42:52;;;;;;;13.32;7.40;;;;;;;;;;5001687;28;20054;-81
2022/05/11 00:45:18;;;;;;;14.13;7.43;;;;;;;;;;5000896;28;20496;-82
2022/05/11 00:47:44;;;;;;;14.55;6.97;;;;;;;;;;5000432;28;20046;-81
2022/05/11 00:50:13;;;;;;;10.25;6.75;;;;;;;;;;5000779;28;20363;-81
2022/05/11 00:53:00;;;;;;;14.20;6.88;;;;;;;;;;5015044;28;20052;-81
2022/05/11 00:55:33;;;;;;;16.05;6.97;;;;;;;;;;5008539;28;20049;-82
2022/05/11 00:58:01;;;;;;;11.45;6.68;;;;;;;;;;5017382;28;20065;-82
2022/05/11 01:00:27;;;;;;;12.45;6.95;;;;;;;;;;5000170;28;20046;-81
2022/05/11 01:03:13;;;;;;;19.15;6.72;;;;;;;;;;4994379;28;20592;-81
2022/05/11 01:05:41;;;;;;;10.23;6.65;;;;;;;;;;5008528;28;20034;-81
2022/05/11 01:08:07;;;;;;;12.60;6.47;;;;;;;;;;5019834;28;20056;-81
2022/05/11 01:10:33;;;;;;;11.07;6.25;;;;;;;;;;5014754;28;20095;-81
2022/05/11 01:13:01;;;;;;;12.02;6.05;;;;;;;;;;4995099;28;20451;-82
2022/05/11 01:15:32;;;;;;;12.30;6.78;;;;;;;;;;5009051;28;20054;-82
2022/05/11 01:17:58;;;;;;;12.77;6.38;;;;;;;;;;4989665;28;20411;-81
2022/05/11 01:20:25;;;;;;;12.38;7.30;;;;;;;;;;5003889;28;20492;-81
2022/05/11 01:23:17;;;;;;;13.07;6.90;;;;;;;;;;4998794;28;20058;-81
2022/05/11 01:25:44;;;;;;;10.75;6.80;;;;;;;;;;5000209;28;20058;-82
2022/05/11 01:28:11;;;;;;;10.23;6.45;;;;;;;;;;5010533;28;20109;-83
2022/05/11 01:30:41;;;;;;;12.27;6.50;;;;;;;;;;5007224;28;20058;-82
2022/05/11 01:33:08;;;;;;;12.32;6.03;;;;;;;;;;5021931;28;20048;-82
2022/05/11 01:35:34;;;;;;;14.90;5.97;;;;;;;;;;5010598;28;20038;-81
2022/05/11 01:38:03;;;;;;;17.55;5.93;;;;;;;;;;4990521;28;20038;-82
2022/05/11 01:40:30;;;;;;;12.95;6.25;;;;;;;;;;5007906;28;20055;-81
2022/05/11 01:42:56;;;;;;;14.00;6.07;;;;;;;;;;5017077;28;20042;-82
2022/05/11 01:45:21;;;;;;;11.75;5.32;;;;;;;;;;4999751;28;20779;-82
2022/05/11 01:47:47;;;;;;;13.57;5.93;;;;;;;;;;5007696;28;20136;-82
2022/05/11 01:50:13;;;;;;;11.90;6.00;;;;;;;;;;5000600;28;20049;-82
2022/05/11 01:52:39;;;;;;;13.52;6.70;;;;;;;;;;5010727;28;20061;-82
2022/05/11 01:55:06;;;;;;;12.85;5.82;;;;;;;;;;5015636;28;20081;-82
2022/05/11 01:57:32;;;;;;;13.85;6.22;;;;;;;;;;5009200;28;20128;-82
2022/05/11 01:59:58;;;;;;;13.50;5.80;;;;;;;;;;5010762;28;20462;-82
2022/05/11 02:02:24;;;;;;;12.57;5.88;;;;;;;;;;5004200;28;20038;-82
2022/05/11 02:07:50;;;;;;;14.27;5.28;;;;;;;;;;5027906;28;20077;-81
2022/05/11 02:10:17;;;;;;;15.05;5.50;;;;;;;;;;5009471;28;20069;-82
2022/05/11 02:12:43;;;;;;;14.68;6.28;;;;;;;;;;4997683;28;20401;-82
2022/05/11 02:15:09;;;;;;;12.30;5.43;;;;;;;;;;4997222;28;20524;-82
2022/05/11 02:17:35;;;;;;;14.65;5.85;;;;;;;;;;5004078;28;20041;-82
2022/05/11 02:20:02;;;;;;;12.20;5.35;;;;;;;;;;5035594;28;20050;-82
2022/05/11 02:22:31;;;;;;;13.20;5.72;;;;;;;;;;5020755;28;20128;-82
2022/05/11 02:25:00;;;;;;;16.15;5.90;;;;;;;;;;4998383;28;20047;-82
2022/05/11 02:27:26;;;;;;;12.75;6.38;;;;;;;;;;5017067;28;20067;-83
2022/05/11 02:29:52;;;;;;;12.07;5.97;;;;;;;;;;5006521;28;20034;-82
2022/05/11 02:32:18;;;;;;;11.30;5.57;;;;;;;;;;5003572;28;20165;-82
2022/05/11 02:37:28;;;;;;;10.40;5.10;;;;;;;;;;5000526;28;20049;-83
2022/05/11 02:39:54;;;;;;;11.00;5.68;;;;;;;;;;5007668;28;20057;-82
2022/05/11 02:42:20;;;;;;;10.82;5.10;;;;;;;;;;5003091;28;20038;-82
2022/05/11 02:44:46;;;;;;;11.07;5.10;;;;;;;;;;5000715;28;20405;-82
2022/05/11 02:47:12;;;;;;;9.70;4.97;;;;;;;;;;5006917;28;20037;-82
2022/05/11 02:49:38;;;;;;;13.95;4.85;;;;;;;;;;5007210;28;20150;-82
2022/05/11 02:52:05;;;;;;;11.13;4.88;;;;;;;;;;4999397;28;20176;-82
2022/05/11 02:54:31;;;;;;;9.70;4.90;;;;;;;;;;5017008;28;20100;-82
2022/05/11 02:56:57;;;;;;;9.35;4.88;;;;;;;;;;5006153;28;20049;-82
2022/05/11 02:59:23;;;;;;;12.65;4.85;;;;;;;;;;5009314;28;20101;-82
2022/05/11 03:01:51;;;;;;;12.55;4.55;;;;;;;;;;5001282;28;20047;-82
2022/05/11 03:04:21;;;;;;;12.15;5.22;;;;;;;;;;5001231;28;20134;-82
2022/05/11 03:06:47;;;;;;;11.57;5.03;;;;;;;;;;5001871;28;20513;-82
2022/05/11 03:09:17;;;;;;;14.02;4.75;;;;;;;;;;4994663;28;20043;-82
2022/05/11 03:11:44;;;;;;;12.30;4.97;;;;;;;;;;5000770;28;20081;-81
2022/05/11 03:14:10;;;;;;;14.30;4.90;;;;;;;;;;5000450;28;20046;-82
2022/05/11 03:16:37;;;;;;;11.68;5.18;;;;;;;;;;5004365;28;20065;-82
2022/05/11 03:19:03;;;;;;;13.57;5.57;;;;;;;;;;5007441;28;20522;-84
2022/05/11 03:21:29;;;;;;;16.00;5.30;;;;;;;;;;5006857;28;20134;-82
2022/05/11 03:23:56;;;;;;;14.45;5.35;;;;;;;;;;5002153;28;20091;-83
2022/05/11 03:26:25;;;;;;;11.02;5.10;;;;;;;;;;5003950;28;20068;-81
2022/05/11 03:28:51;;;;;;;10.38;5.22;;;;;;;;;;5008593;28;20038;-82
2022/05/11 03:31:17;;;;;;;15.23;5.78;;;;;;;;;;5012859;28;20047;-82
2022/05/11 03:36:27;;;;;;;12.57;6.03;;;;;;;;;;4993029;28;20050;-82
2022/05/11 03:38:53;;;;;;;14.15;5.80;;;;;;;;;;4992426;28;20054;-82
2022/05/11 03:41:20;;;;;;;11.05;5.18;;;;;;;;;;4996834;28;20076;-82
2022/05/11 03:43:46;;;;;;;11.60;5.80;;;;;;;;;;5010348;28;20121;-81
2022/05/11 03:46:12;;;;;;;11.90;5.45;;;;;;;;;;5010066;28;20100;-83
2022/05/11 03:48:38;;;;;;;14.38;6.38;;;;;;;;;;5000089;28;20049;-82
2022/05/11 03:51:07;;;;;;;12.82;6.05;;;;;;;;;;5006198;28;20046;-82
2022/05/11 03:53:36;;;;;;;10.70;6.00;;;;;;;;;;5017755;28;20068;-82
2022/05/11 03:56:02;;;;;;;13.13;6.15;;;;;;;;;;5011175;28;20041;-83
2022/05/11 03:58:28;;;;;;;16.27;6.28;;;;;;;;;;5009512;28;20046;-82
2022/05/11 04:00:54;;;;;;;16.90;7.05;;;;;;;;;;5006492;28;20065;-81
2022/05/11 04:03:20;;;;;;;16.13;6.78;;;;;;;;;;5013091;28;20106;-82
2022/05/11 04:05:46;;;;;;;19.08;7.20;;;;;;;;;;5000452;28;20061;-82
2022/05/11 04:08:12;;;;;;;12.75;6.57;;;;;;;;;;5011857;28;20389;-81
2022/05/11 04:10:38;;;;;;;15.30;6.75;;;;;;;;;;5004870;28;20066;-81
2022/05/11 04:13:05;;;;;;;13.35;6.97;;;;;;;;;;4993695;28;20046;-82
2022/05/11 04:15:31;;;;;;;16.05;6.65;;;;;;;;;;5008506;28;20528;-82
2022/05/11 04:18:00;;;;;;;18.33;7.38;;;;;;;;;;5003170;28;20142;-81
2022/05/11 04:20:26;;;;;;;14.77;6.03;;;;;;;;;;5008008;28;20038;-82
2022/05/11 04:22:52;;;;;;;21.10;7.28;;;;;;;;;;4997995;28;20054;-82
2022/05/11 04:25:18;;;;;;;14.55;6.10;;;;;;;;;;5009952;28;20437;-82
2022/05/11 04:27:45;;;;;;;14.13;5.80;;;;;;;;;;5019415;28;20042;-82
2022/05/11 04:30:12;;;;;;;11.68;5.65;;;;;;;;;;5016917;28;20072;-82
2022/05/11 04:32:38;;;;;;;14.80;6.03;;;;;;;;;;5004082;28;21675;-82
2022/05/11 04:35:04;;;;;;;12.65;5.03;;;;;;;;;;4995654;28;20093;-82
2022/05/11 04:37:30;;;;;;;13.98;5.43;;;;;;;;;;5005067;28;20108;-82
2022/05/11 04:39:56;;;;;;;11.65;5.07;;;;;;;;;;5030970;28;20129;-83
2022/05/11 04:42:22;;;;;;;12.30;5.10;;;;;;;;;;5009989;28;20056;-81
2022/05/11 04:44:57;;;;;;;15.73;5.20;;;;;;;;;;5011369;28;20393;-82
2022/05/11 04:47:23;;;;;;;13.73;5.57;;;;;;;;;;5007004;28;20050;-83
2022/05/11 04:49:52;;;;;;;14.52;5.57;;;;;;;;;;5006065;28;20061;-82
2022/05/11 04:52:18;;;;;;;13.80;5.13;;;;;;;;;;5004235;28;20038;-82
2022/05/11 04:54:46;;;;;;;12.88;5.20;;;;;;;;;;5012972;28;20033;-81
2022/05/11 04:57:13;;;;;;;10.40;4.35;;;;;;;;;;5001859;28;20120;-82
2022/05/11 04:59:40;;;;;;;12.70;4.55;;;;;;;;;;5015803;28;20629;-82
2022/05/11 05:02:06;;;;;;;12.95;5.28;;;;;;;;;;5001454;28;20050;-82
2022/05/11 05:04:32;;;;;;;11.05;4.40;;;;;;;;;;5015918;28;20545;-82
2022/05/11 05:06:58;;;;;;;12.88;4.15;;;;;;;;;;5000795;28;20056;-81
2022/05/11 05:09:24;;;;;;;18.42;4.60;;;;;;;;;;5007430;28;20692;-82
2022/05/11 05:11:51;;;;;;;11.63;4.07;;;;;;;;;;5007030;28;20054;-82
2022/05/11 05:14:17;;;;;;;12.98;4.55;;;;;;;;;;5012059;28;20381;-81
2022/05/11 05:16:43;;;;;;;12.93;5.72;;;;;;;;;;5011156;28;20037;-80
2022/05/11 05:19:09;;;;;;;12.55;4.53;;;;;;;;;;5009167;28;20221;-81
2022/05/11 05:21:36;;;;;;;15.82;4.53;;;;;;;;;;5000238;28;20064;-81
2022/05/11 05:24:02;;;;;;;10.25;4.10;;;;;;;;;;5011014;28;20051;-80
2022/05/11 05:26:28;;;;;;;10.18;3.80;;;;;;;;;;4997236;28;20048;-81
2022/05/11 05:31:39;;;;;;;12.82;3.70;;;;;;;;;;5006548;28;20061;-82
2022/05/11 05:34:05;;;;;;;14.25;4.57;;;;;;;;;;5009380;28;20042;-81
2022/05/11 05:36:33;;;;;;;12.75;4.00;;;;;;;;;;5011022;28;20171;-82
2022/05/11 05:38:59;;;;;;;12.60;4.13;;;;;;;;;;5017465;28;20045;-81
2022/05/11 05:41:26;;;;;;;10.95;3.70;;;;;;;;;;4997074;28;20580;-81
2022/05/11 05:43:52;;;;;;;12.80;3.92;;;;;;;;;;5005115;28;20042;-82
2022/05/11 05:46:18;;;;;;;12.05;3.90;;;;;;;;;;5001983;28;20069;-81
2022/05/11 05:48:44;;;;;;;13.27;4.50;;;;;;;;;;5017218;28;20072;-81
2022/05/11 05:51:12;;;;;;;10.35;3.75;;;;;;;;;;5014596;28;20053;-81
2022/05/11 05:53:40;;;;;;;10.23;4.10;;;;;;;;;;5013235;28;20445;-81
2022/05/11 05:56:09;;;;;;;12.15;3.97;;;;;;;;;;5010944;28;20121;-81
2022/05/11 05:58:36;;;;;;;10.45;3.78;;;;;;;;;;4997210;28;20042;-81
2022/05/11 06:01:02;;;;;;;10.40;3.72;;;;;;;;;;5006953;28;20053;-83
2022/05/11 06:03:31;;;;;;;14.05;4.63;;;;;;;;;;4996504;28;20393;-81
2022/05/11 06:05:57;;;;;;;14.15;5.07;;;;;;;;;;5009287;28;20377;-81
2022/05/11 06:08:25;;;;;;;21.67;4.80;;;;;;;;;;5031546;28;20058;-81
2022/05/11 06:10:55;;;;;;;11.00;3.92;;;;;;;;;;5003377;28;20046;-81
2022/05/11 06:13:22;;;;;;;11.43;3.85;;;;;;;;;;4991623;28;20156;-82
2022/05/11 06:15:49;;;;;;;13.13;4.00;;;;;;;;;;4995764;28;20173;-80
2022/05/11 06:18:18;;;;;;;12.38;3.75;;;;;;;;;;4994837;28;20174;-82
2022/05/11 06:20:44;;;;;;;12.07;4.00;;;;;;;;;;5001481;28;20049;-82
2022/05/11 06:23:10;;;;;;;12.88;4.07;;;;;;;;;;5024348;28;20058;-81
2022/05/11 06:25:37;;;;;;;15.27;4.22;;;;;;;;;;5010432;28;20454;-82
2022/05/11 06:28:04;;;;;;;13.52;4.60;;;;;;;;;;5006541;28;20393;-82
2022/05/11 06:30:30;;;;;;;13.50;4.55;;;;;;;;;;5003584;28;20048;-82
2022/05/11 06:32:57;;;;;;;11.00;3.72;;;;;;;;;;5012285;28;20050;-82
2022/05/11 06:35:23;;;;;;;9.77;3.90;;;;;;;;;;5002104;28;20501;-83
2022/05/11 06:37:51;;;;;;;13.30;4.00;;;;;;;;;;5029794;28;20049;-81
2022/05/11 06:40:18;;;;;;;12.25;4.05;;;;;;;;;;5016710;28;20077;-82
2022/05/11 06:42:44;;;;;;;10.23;3.75;;;;;;;;;;5010276;28;20050;-82
2022/05/11 06:45:11;;;;;;;15.55;4.40;;;;;;;;;;5011170;28;20034;-82
2022/05/11 06:47:37;;;;;;;14.18;4.13;;;;;;;;;;5010969;28;20471;-83
2022/05/11 06:50:03;;;;;;;13.77;4.38;;;;;;;;;;5014347;28;20392;-82
2022/05/11 06:52:30;;;;;;;15.18;4.72;;;;;;;;;;5009567;28;20446;-82
2022/05/11 07:00:29;;;;;;;15.15;4.18;;;;;;;;;;5008782;28;20057;-81
2022/05/11 07:02:58;;;;;;;16.75;4.50;;;;;;;;;;4999557;28;20046;-81
2022/05/11 07:05:24;;;;;;;13.98;4.55;;;;;;;;;;5003911;28;20041;-80
2022/05/11 07:07:54;;;;;;;12.88;3.67;;;;;;;;;;5025228;28;20041;-82
2022/05/11 07:10:20;;;;;;;13.75;4.20;;;;;;;;;;5031718;28;20099;-82
2022/05/11 07:12:46;;;;;;;13.88;4.88;;;;;;;;;;5021623;28;20274;-81
2022/05/11 07:15:13;;;;;;;11.63;3.90;;;;;;;;;;4991959;28;20771;-82
2022/05/11 07:17:42;;;;;;;18.67;5.18;;;;;;;;;;4995067;28;20090;-81
2022/05/11 07:20:23;;;;;;;12.68;4.18;;;;;;;;;;4997618;28;20050;-81
2022/05/11 07:22:49;;;;;;;13.18;4.45;;;;;;;;;;5000567;28;20565;-81
2022/05/11 07:25:16;;;;;;;15.55;4.88;;;;;;;;;;5011321;28;20090;-80
2022/05/11 07:27:44;;;;;;;13.63;4.25;;;;;;;;;;4995715;28;20451;-81
2022/05/11 07:30:11;;;;;;;11.23;4.03;;;;;;;;;;4994436;28;20054;-82
2022/05/11 07:32:37;;;;;;;16.10;4.55;;;;;;;;;;4994466;28;20057;-81
2022/05/11 07:35:04;;;;;;;11.88;4.20;;;;;;;;;;5005133;28;20047;-81
2022/05/11 07:37:30;;;;;;;15.23;4.93;;;;;;;;;;5032595;28;20057;-81
2022/05/11 07:39:56;;;;;;;14.38;4.15;;;;;;;;;;5005369;28;20057;-83
2022/05/11 07:42:23;;;;;;;14.95;4.47;;;;;;;;;;4995406;28;20092;-82
2022/05/11 07:44:49;;;;;;;19.00;4.57;;;;;;;;;;4994744;28;20065;-81
2022/05/11 07:47:18;;;;;;;13.75;4.25;;;;;;;;;;4995812;28;20056;-83
2022/05/11 07:49:44;;;;;;;10.27;3.88;;;;;;;;;;4994192;28;20134;-81
2022/05/11 07:52:10;;;;;;;11.98;4.13;;;;;;;;;;5013394;28;20133;-83
2022/05/11 07:54:36;;;;;;;17.58;4.97;;;;;;;;;;5019805;28;20124;-80
2022/05/11 07:59:56;;;;;;;13.48;4.40;;;;;;;;;;5033472;28;20053;-82
2022/05/11 08:02:27;;;;;;;17.52;4.22;;;;;;;;;;5017059;28;20130;-83
2022/05/11 08:05:04;;;;;;;13.07;4.68;;;;;;;;;;5028527;28;20504;-81
2022/05/11 08:07:41;;;;;;;13.82;4.43;;;;;;;;;;5010755;28;20042;-82
2022/05/11 08:10:08;;;;;;;14.70;4.40;;;;;;;;;;4995601;28;20057;-81
2022/05/11 08:12:34;;;;;;;15.48;4.18;;;;;;;;;;4995055;28;20038;-82
2022/05/11 08:15:00;;;;;;;12.13;4.30;;;;;;;;;;5004370;28;20038;-82
2022/05/11 08:17:31;;;;;;;17.60;4.60;;;;;;;;;;5033440;28;20046;-82
2022/05/11 08:19:59;;;;;;;15.77;4.50;;;;;;;;;;4998300;28;20046;-81
2022/05/11 08:22:26;;;;;;;14.95;4.20;;;;;;;;;;5012143;28;20113;-82
2022/05/11 08:24:52;;;;;;;17.05;4.70;;;;;;;;;;5032265;28;20052;-81
2022/05/11 08:27:21;;;;;;;15.38;4.28;;;;;;;;;;5007613;28;20061;-82
2022/05/11 08:35:18;;;;;;;19.25;5.22;;;;;;;;;;4994969;28;20551;-81
2022/05/11 08:37:44;;;;;;;17.17;4.72;;;;;;;;;;5030465;28;20527;-83
2022/05/11 08:40:30;;;;;;;17.38;5.18;;;;;;;;;;5017718;28;20043;-82
2022/05/11 08:42:57;;;;;;;15.90;4.55;;;;;;;;;;4990159;28;20081;-82
2022/05/11 08:45:37;;;;;;;12.98;4.47;;;;;;;;;;4994906;28;20101;-83
2022/05/11 08:48:06;;;;;;;16.77;5.13;;;;;;;;;;5023725;28;20103;-82
2022/05/11 08:50:34;;;;;;;16.58;5.15;;;;;;;;;;5029209;28;20053;-82
2022/05/11 08:53:02;;;;;;;16.83;4.65;;;;;;;;;;5026166;28;20037;-83
2022/05/11 08:55:38;;;;;;;15.93;4.38;;;;;;;;;;5006495;28;20362;-83
2022/05/11 08:58:20;;;;;;;17.63;5.00;;;;;;;;;;5010119;28;20436;-83
2022/05/11 09:00:46;;;;;;;15.97;4.23;;;;;;;;;;5032268;28;20042;-83
2022/05/11 09:03:22;;;;;;;15.65;4.75;;;;;;;;;;5031611;28;20308;-83
2022/05/11 09:05:48;;;;;;;14.75;4.50;;;;;;;;;;5016226;28;20053;-81
2022/05/11 09:08:14;;;;;;;14.13;4.40;;;;;;;;;;5030662;28;20041;-82
2022/05/11 09:10:40;;;;;;;15.35;4.45;;;;;;;;;;5031044;28;20136;-83
2022/05/11 09:13:11;;;;;;;12.10;4.63;;;;;;;;;;4997020;28;20478;-82
2022/05/11 09:15:49;;;;;;;25.73;5.80;;;;;;;;;;4992336;28;20398;-82
2022/05/11 09:18:15;;;;;;;32.70;7.05;;;;;;;;;;4992138;28;20417;-82
2022/05/11 09:20:50;;;;;;;16.27;4.40;;;;;;;;;;5001198;28;20041;-81
2022/05/11 09:23:27;;;;;;;15.95;4.55;;;;;;;;;;5030361;28;20076;-82
2022/05/11 09:25:59;;;;;;;17.15;4.80;;;;;;;;;;5024944;28;20045;-82
2022/05/11 09:28:27;;;;;;;20.05;5.50;;;;;;;;;;4992121;28;20149;-83
2022/05/11 09:31:12;;;;;;;21.88;5.25;;;;;;;;;;4994744;28;20050;-83
2022/05/11 09:34:03;;;;;;;19.20;4.63;;;;;;;;;;4993152;28;20042;-82
2022/05/11 09:36:35;;;;;;;15.93;4.60;;;;;;;;;;5017617;28;20049;-81
2022/05/11 09:39:13;;;;;;;13.93;4.47;;;;;;;;;;5005706;28;20130;-83
2022/05/11 09:41:43;;;;;;;13.13;3.90;;;;;;;;;;4992551;28;20108;-82
2022/05/11 09:44:20;;;;;;;15.40;4.43;;;;;;;;;;4992077;28;20052;-82
2022/05/11 09:46:46;;;;;;;11.75;3.67;;;;;;;;;;4993135;28;20066;-82
2022/05/11 09:49:28;;;;;;;11.10;3.72;;;;;;;;;;4992835;28;20049;-82
2022/05/11 09:51:55;;;;;;;10.57;3.72;;;;;;;;;;5021103;28;20081;-82
2022/05/11 09:54:33;;;;;;;11.73;4.00;;;;;;;;;;5013366;28;20046;-82
2022/05/11 09:57:02;;;;;;;12.20;3.92;;;;;;;;;;5012238;28;20046;-81
2022/05/11 09:59:37;;;;;;;9.52;3.53;;;;;;;;;;5011546;28;20080;-82
2022/05/11 10:02:12;;;;;;;13.23;3.97;;;;;;;;;;4998270;28;20050;-82
2022/05/11 10:04:41;;;;;;;12.45;4.07;;;;;;;;;;4993425;28;20061;-83
2022/05/11 10:07:11;;;;;;;17.42;4.50;;;;;;;;;;5031223;28;20533;-83
2022/05/11 10:09:46;;;;;;;11.70;4.13;;;;;;;;;;5028340;28;20159;-83
2022/05/11 10:12:16;;;;;;;12.57;4.20;;;;;;;;;;4993004;28;20043;-82
2022/05/11 10:23:18;;;;;;;11.68;3.92;;;;;;;;;;5031452;28;20092;-83
2022/05/11 10:25:48;;;;;;;15.80;4.75;;;;;;;;;;5007726;28;20065;-83
2022/05/11 10:28:23;;;;;;;12.70;4.35;;;;;;;;;;4993013;28;20051;-83
2022/05/11 10:30:59;;;;;;;14.05;4.40;;;;;;;;;;5011210;28;20149;-83
2022/05/11 10:33:25;;;;;;;10.48;3.75;;;;;;;;;;5011692;28;20074;-82
2022/05/11 10:35:59;;;;;;;12.50;4.25;;;;;;;;;;5004497;28;20491;-83
2022/05/11 10:38:31;;;;;;;12.95;3.85;;;;;;;;;;5006217;28;20414;-83
2022/05/11 10:41:13;;;;;;;15.55;4.32;;;;;;;;;;4991005;28;20053;-82
2022/05/11 10:43:47;;;;;;;13.95;4.43;;;;;;;;;;4991541;28;20864;-82
2022/05/11 10:46:15;;;;;;;12.77;4.13;;;;;;;;;;4990273;28;20054;-84
2022/05/11 10:48:56;;;;;;;13.48;4.38;;;;;;;;;;5012756;28;20034;-83
2022/05/11 10:51:30;;;;;;;14.85;4.00;;;;;;;;;;5042814;28;20053;-84
2022/05/11 10:54:05;;;;;;;14.52;5.10;;;;;;;;;;5011048;28;20050;-82
2022/05/11 10:56:50;;;;;;;16.27;4.85;;;;;;;;;;5027209;28;20413;-84
2022/05/11 10:59:34;;;;;;;14.25;4.10;;;;;;;;;;5015668;28;20045;-84
2022/05/11 11:02:18;;;;;;;13.68;4.38;;;;;;;;;;5013898;28;20042;-84
2022/05/11 11:04:44;;;;;;;13.90;4.60;;;;;;;;;;5025379;28;20041;-83
2022/05/11 11:07:14;;;;;;;15.35;4.57;;;;;;;;;;5025012;28;20152;-83
2022/05/11 11:09:59;;;;;;;14.40;4.20;;;;;;;;;;5028381;28;20041;-82
2022/05/11 11:12:43;;;;;;;13.45;4.70;;;;;;;;;;5035024;28;20060;-84
2022/05/11 11:15:14;;;;;;;19.80;4.80;;;;;;;;;;5029734;28;20038;-83
2022/05/11 11:17:42;;;;;;;21.65;5.38;;;;;;;;;;5016699;28;20235;-81
2022/05/11 11:20:09;;;;;;;13.90;4.40;;;;;;;;;;5019943;28;20033;-82
2022/05/11 11:22:54;;;;;;;14.23;4.65;;;;;;;;;;5020093;28;20062;-81
2022/05/11 11:25:22;;;;;;;13.98;5.10;;;;;;;;;;5026096;28;20133;-81
2022/05/11 11:28:09;;;;;;;14.85;4.95;;;;;;;;;;5027245;28;20052;-81
2022/05/11 11:30:36;;;;;;;15.60;5.47;;;;;;;;;;5012696;28;20061;-81
2022/05/11 11:33:11;;;;;;;17.67;5.10;;;;;;;;;;5014674;28;20057;-81
2022/05/11 11:35:44;;;;;;;16.90;5.18;;;;;;;;;;5019255;28;20037;-82
2022/05/11 11:38:23;;;;;;;13.55;4.95;;;;;;;;;;5013573;28;20053;-81
2022/05/11 11:41:12;;;;;;;16.38;5.18;;;;;;;;;;5004790;28;20048;-83
2022/05/11 11:43:42;;;;;;;14.13;4.25;;;;;;;;;;5044683;28;20169;-82
2022/05/11 11:46:08;;;;;;;16.63;4.38;;;;;;;;;;5016701;28;20489;-83
2022/05/11 11:48:38;;;;;;;15.98;4.60;;;;;;;;;;5014522;28;20041;-83
2022/05/11 11:51:11;;;;;;;18.65;5.55;;;;;;;;;;5009317;28;20449;-82
2022/05/11 11:53:42;;;;;;;15.30;4.63;;;;;;;;;;5014968;28;20059;-81
2022/05/11 11:56:24;;;;;;;18.63;5.43;;;;;;;;;;5000637;28;20453;-82
2022/05/11 11:59:09;;;;;;;18.98;5.07;;;;;;;;;;5009942;28;20064;-83
2022/05/11 12:01:46;;;;;;;19.15;4.97;;;;;;;;;;5008585;28;20038;-81
2022/05/11 12:04:18;;;;;;;16.27;5.05;;;;;;;;;;5017711;28;20041;-82
2022/05/11 12:15:15;;;;;;;14.32;4.30;;;;;;;;;;5001068;28;20046;-82
2022/05/11 12:17:41;;;;;;;15.70;5.55;;;;;;;;;;4994985;28;20128;-81
2022/05/11 12:20:18;;;;;;;18.98;4.95;;;;;;;;;;5011687;28;20065;-82
2022/05/11 12:22:49;;;;;;;12.57;4.22;;;;;;;;;;5000718;28;20129;-85
2022/05/11 12:25:21;;;;;;;13.85;4.70;;;;;;;;;;5020055;28;20092;-82
2022/05/11 12:27:47;;;;;;;16.38;4.75;;;;;;;;;;5019687;28;20091;-82
2022/05/11 12:30:28;;;;;;;13.75;4.63;;;;;;;;;;5008623;28;20056;-82
2022/05/11 12:32:57;;;;;;;13.70;5.05;;;;;;;;;;5019468;28;20149;-83
2022/05/11 12:35:33;;;;;;;16.83;4.70;;;;;;;;;;5006261;28;20034;-83
2022/05/11 12:38:03;;;;;;;17.45;5.45;;;;;;;;;;5026552;28;20449;-82
2022/05/11 12:40:30;;;;;;;14.52;5.10;;;;;;;;;;5023073;28;20129;-82
2022/05/11 12:42:58;;;;;;;17.20;5.40;;;;;;;;;;5024534;28;20413;-83
2022/05/11 12:45:29;;;;;;;16.23;4.88;;;;;;;;;;5025353;28;20042;-83
2022/05/11 12:47:56;;;;;;;14.65;4.82;;;;;;;;;;5014512;28;20047;-83
2022/05/11 12:50:33;;;;;;;18.73;4.90;;;;;;;;;;5030610;28;20045;-82
2022/05/11 12:53:02;;;;;;;13.25;4.32;;;;;;;;;;5015602;28;20080;-82
2022/05/11 12:55:33;;;;;;;12.18;5.07;;;;;;;;;;5023704;28;20556;-82
2022/05/11 12:57:59;;;;;;;13.15;4.97;;;;;;;;;;5011581;28;20109;-82
2022/05/11 13:00:26;;;;;;;16.60;4.70;;;;;;;;;;5034509;28;20038;-83
2022/05/11 13:02:52;;;;;;;13.65;4.15;;;;;;;;;;5015312;28;20041;-80
2022/05/11 13:05:20;;;;;;;14.63;4.13;;;;;;;;;;5015077;28;20089;-83
2022/05/11 13:07:51;;;;;;;11.90;4.30;;;;;;;;;;5013417;28;20041;-82
2022/05/11 13:10:21;;;;;;;11.38;3.97;;;;;;;;;;5012636;28;20046;-81
2022/05/11 13:12:51;;;;;;;12.80;3.77;;;;;;;;;;5014777;28;20536;-82
2022/05/11 13:15:52;;;;;;;10.48;3.90;;;;;;;;;;5000342;28;20083;-82
2022/05/11 13:18:26;;;;;;;12.20;3.75;;;;;;;;;;5009355;28;20393;-81
2022/05/11 13:20:53;;;;;;;10.98;3.38;;;;;;;;;;5030884;28;20081;-82
2022/05/11 13:23:29;;;;;;;12.38;3.35;;;;;;;;;;5013038;28;20058;-81
2022/05/11 13:25:57;;;;;;;14.85;4.05;;;;;;;;;;4993342;28;20105;-81
2022/05/11 13:28:25;;;;;;;14.70;3.60;;;;;;;;;;5009051;28;20050;-81
2022/05/11 13:30:56;;;;;;;10.68;3.53;;;;;;;;;;4995052;28;20085;-82
2022/05/11 13:33:48;;;;;;;11.80;3.70;;;;;;;;;;5023794;28;20484;-81
2022/05/11 13:36:14;;;;;;;11.32;3.72;;;;;;;;;;5023442;28;20494;-81
2022/05/11 13:39:01;;;;;;;10.23;3.58;;;;;;;;;;5011075;28;20037;-81
2022/05/11 13:41:34;;;;;;;11.00;3.28;;;;;;;;;;5024257;28;20057;-83
2022/05/11 13:44:03;;;;;;;;;;;;;;;;;;4995184;28;20061;-84
2022/05/11 13:46:35;;;;;;;11.00;3.65;;;;;;;;;;4991922;28;19921;-83
2022/05/11 13:49:16;;;;;;;9.90;3.25;;;;;;;;;;5002501;28;20138;-83
2022/05/11 13:51:42;;;;;;;10.43;3.70;;;;;;;;;;5011169;28;20045;-81
2022/05/11 13:54:20;;;;;;;12.32;3.60;;;;;;;;;;5010016;28;20045;-81
2022/05/11 13:57:00;;;;;;;12.45;3.50;;;;;;;;;;5002675;28;20041;-81
2022/05/11 13:59:29;;;;;;;9.38;3.50;;;;;;;;;;5014418;28;20505;-79
2022/05/11 14:01:55;;;;;;;14.50;4.10;;;;;;;;;;5010815;28;20461;-82
2022/05/11 14:04:25;;;;;;;11.57;3.58;;;;;;;;;;5008215;28;20052;-81
2022/05/11 14:06:56;;;;;;;9.70;3.50;;;;;;;;;;5027614;28;20049;-81
2022/05/11 14:09:22;;;;;;;9.52;3.70;;;;;;;;;;5024616;28;20045;-79
2022/05/11 14:11:48;;;;;;;10.18;3.58;;;;;;;;;;5018594;28;20048;-80
2022/05/11 14:14:14;;;;;;;11.07;3.58;;;;;;;;;;5008054;28;20068;-82
2022/05/11 14:16:40;;;;;;;13.27;4.00;;;;;;;;;;5018923;28;20477;-82
2022/05/11 14:19:08;;;;;;;12.35;3.95;;;;;;;;;;5011323;28;20046;-81
2022/05/11 14:21:36;;;;;;;11.57;3.80;;;;;;;;;;5029891;28;20107;-81
2022/05/11 14:24:02;;;;;;;12.48;3.80;;;;;;;;;;5023073;28;20504;-81
2022/05/11 14:26:28;;;;;;;9.60;3.38;;;;;;;;;;5011519;28;20041;-82
2022/05/11 14:28:54;;;;;;;6.57;3.45;;;;;;;;;;5015282;28;20121;-83
2022/05/11 14:31:23;;;;;;;8.95;3.45;;;;;;;;;;5010303;28;20125;-82
2022/05/11 14:33:50;;;;;;;11.98;4.20;;;;;;;;;;5009604;28;20038;-81
2022/05/11 14:36:17;;;;;;;9.85;3.38;;;;;;;;;;5007590;28;20052;-81
2022/05/11 14:38:43;;;;;;;14.32;3.67;;;;;;;;;;5005749;28;20489;-82
2022/05/11 14:41:12;;;;;;;10.15;3.80;;;;;;;;;;5004147;28;20076;-80
2022/05/11 14:43:38;;;;;;;7.97;3.33;;;;;;;;;;5008979;28;20054;-80
2022/05/11 14:46:05;;;;;;;9.63;3.35;;;;;;;;;;5014043;28;20046;-81
2022/05/11 14:48:35;;;;;;;7.20;2.90;;;;;;;;;;5013805;28;20077;-81
2022/05/11 14:51:02;;;;;;;8.90;3.53;;;;;;;;;;5006635;28;20055;-82
2022/05/11 14:53:28;;;;;;;8.00;3.10;;;;;;;;;;5012631;28;20034;-82
2022/05/11 14:55:55;;;;;;;11.57;3.33;;;;;;;;;;5020809;28;20058;-83
2022/05/11 15:03:55;;;;;;;6.65;2.92;;;;;;;;;;5012406;28;20366;-82
2022/05/11 15:06:21;;;;;;;7.65;2.88;;;;;;;;;;5013665;28;20064;-83
2022/05/11 15:08:51;;;;;;;7.68;3.05;;;;;;;;;;5026325;28;20053;-82
2022/05/11 15:14:01;;;;;;;9.80;3.60;;;;;;;;;;4998212;28;20042;-82
2022/05/11 15:16:29;;;;;;;9.65;3.40;;;;;;;;;;5009111;28;20042;-80
2022/05/11 15:18:55;;;;;;;7.57;2.78;;;;;;;;;;5020175;28;20041;-81
2022/05/11 15:21:21;;;;;;;8.23;2.88;;;;;;;;;;5028884;28;20548;-83
2022/05/11 15:23:47;;;;;;;8.82;3.20;;;;;;;;;;5013159;28;20115;-81
2022/05/11 15:26:13;;;;;;;11.38;3.60;;;;;;;;;;5009323;28;20144;-81
2022/05/11 15:28:39;;;;;;;13.52;3.45;;;;;;;;;;5020854;28;20049;-81
2022/05/11 15:31:05;;;;;;;8.88;2.83;;;;;;;;;;5014915;28;20046;-81
2022/05/11 15:33:31;;;;;;;11.65;3.38;;;;;;;;;;5029803;28;20037;-80